createdAt,value
2022-12-11T00:00:55.511Z,98231.06
2022-12-11T00:03:22.974Z,98232.09
2022-12-11T00:05:50.405Z,98223.88
2022-12-11T00:08:18.046Z,98226.00
2022-12-11T00:10:50.316Z,98215.66
2022-12-11T00:13:17.798Z,98222.19
2022-12-11T00:15:45.860Z,98215.66
2022-12-11T00:18:14.776Z,98223.44
2022-12-11T00:20:42.990Z,98217.97
2022-12-11T00:23:13.121Z,98221.97
2022-12-11T00:25:48.289Z,98209.97
2022-12-11T00:28:20.359Z,98218.81
2022-12-11T00:30:48.404Z,98215.84
2022-12-11T00:33:17.709Z,98217.53
2022-12-11T00:35:48.803Z,98220.88
2022-12-11T00:38:21.754Z,98213.47
2022-12-11T00:40:49.836Z,98210.25
2022-12-11T00:43:17.902Z,98208.38
2022-12-11T00:45:48.572Z,98208.66
2022-12-11T00:48:16.470Z,98207.84
2022-12-11T00:50:49.078Z,98206.38
2022-12-11T00:53:27.745Z,98207.84
2022-12-11T00:55:56.639Z,98209.97
2022-12-11T00:58:24.652Z,98207.22
2022-12-11T01:00:53.523Z,98212.72
2022-12-11T01:03:21.197Z,98217.56
2022-12-11T01:05:57.002Z,98215.03
2022-12-11T01:08:24.535Z,98226.41
2022-12-11T01:10:52.368Z,98231.03
2022-12-11T01:13:20.107Z,98242.63
2022-12-11T01:15:51.492Z,98248.97
2022-12-11T01:18:19.610Z,98248.53
2022-12-11T01:20:48.997Z,98243.69
2022-12-11T01:23:16.863Z,98240.09
2022-12-11T01:25:45.100Z,98240.13
2022-12-11T01:28:12.883Z,98252.34
2022-12-11T01:30:43.983Z,98253.38
2022-12-11T01:33:11.980Z,98258.03
2022-12-11T01:35:41.051Z,98256.31
2022-12-11T01:38:10.720Z,98266.88
2022-12-11T01:40:38.310Z,98269.00
2022-12-11T01:43:05.704Z,98263.31
2022-12-11T01:45:47.296Z,98256.75
2022-12-11T01:48:40.665Z,98263.28
2022-12-11T01:51:09.826Z,98265.16
2022-12-11T01:54:00.246Z,98265.59
2022-12-11T01:56:33.085Z,98267.53
2022-12-11T01:59:07.629Z,98269.19
2022-12-11T02:01:40.759Z,98263.09
2022-12-11T02:04:11.007Z,98259.25
2022-12-11T02:06:50.938Z,98263.69
2022-12-11T02:09:30.044Z,98271.94
2022-12-11T02:12:27.092Z,98274.28
2022-12-11T02:15:07.191Z,98275.75
2022-12-11T02:18:02.529Z,98272.56
2022-12-11T02:21:09.037Z,98265.81
2022-12-11T02:24:10.175Z,98274.91
2022-12-11T02:27:25.253Z,98267.09
2022-12-11T02:30:14.494Z,98265.22
2022-12-11T02:32:46.755Z,98265.41
2022-12-11T02:35:25.054Z,98265.19
2022-12-11T02:38:03.935Z,98262.63
2022-12-11T02:40:37.601Z,98259.84
2022-12-11T02:43:10.847Z,98267.47
2022-12-11T02:45:42.595Z,98260.25
2022-12-11T02:48:12.938Z,98263.41
2022-12-11T02:50:48.133Z,98261.97
2022-12-11T02:53:23.551Z,98260.50
2022-12-11T02:56:02.863Z,98263.69
2022-12-11T02:58:34.633Z,98266.88
2022-12-11T03:01:02.687Z,98266.03
2022-12-11T03:03:30.869Z,98262.22
2022-12-11T03:05:58.478Z,98254.78
2022-12-11T03:08:26.303Z,98256.47
2022-12-11T03:10:54.037Z,98251.44
2022-12-11T03:13:23.567Z,98249.13
2022-12-11T03:16:32.296Z,98253.75
2022-12-11T03:19:13.142Z,98256.03
2022-12-11T03:21:54.182Z,98255.00
2022-12-11T03:24:44.677Z,98256.25
2022-12-11T03:27:27.324Z,98260.06
2022-12-11T03:30:04.068Z,98261.34
2022-12-11T03:32:56.450Z,98260.47
2022-12-11T03:35:31.703Z,98256.47
2022-12-11T03:38:10.062Z,98260.34
2022-12-11T03:40:44.370Z,98259.25
2022-12-11T03:43:12.384Z,98262.25
2022-12-11T03:45:42.486Z,98258.84
2022-12-11T03:48:13.617Z,98268.56
2022-12-11T03:50:48.029Z,98265.41
2022-12-11T03:53:17.381Z,98268.16
2022-12-11T03:55:48.112Z,98264.78
2022-12-11T03:58:15.567Z,98256.34
2022-12-11T04:00:43.267Z,98261.41
2022-12-11T04:03:14.366Z,98246.00
2022-12-11T04:05:47.370Z,98255.91
2022-12-11T04:08:17.192Z,98258.63
2022-12-11T04:10:45.182Z,98253.19
2022-12-11T04:13:13.241Z,98239.03
2022-12-11T04:15:41.462Z,98245.59
2022-12-11T04:18:29.467Z,98237.78
2022-12-11T04:21:15.987Z,98240.31
2022-12-11T04:24:02.225Z,98247.50
2022-12-11T04:26:29.773Z,98235.28
2022-12-11T04:28:57.266Z,98234.19
2022-12-11T04:31:24.712Z,98236.09
2022-12-11T04:33:52.265Z,98230.63
2022-12-11T04:36:19.911Z,98230.19
2022-12-11T04:38:47.867Z,98233.16
2022-12-11T04:41:17.003Z,98221.97
2022-12-11T04:43:45.381Z,98226.81
2022-12-11T04:46:21.440Z,98223.66
2022-12-11T04:48:56.732Z,98212.50
2022-12-11T04:51:25.605Z,98215.84
2022-12-11T04:53:53.737Z,98219.84
2022-12-11T04:56:24.619Z,98220.28
2022-12-11T04:58:52.452Z,98216.28
2022-12-11T05:01:23.451Z,98214.81
2022-12-11T05:03:51.394Z,98218.16
2022-12-11T05:06:18.916Z,98221.53
2022-12-11T05:08:46.614Z,98213.75
2022-12-11T05:11:16.588Z,98212.03
2022-12-11T05:13:45.654Z,98208.22
2022-12-11T05:16:16.882Z,98209.84
2022-12-11T05:18:44.743Z,98215.66
2022-12-11T05:21:15.775Z,98225.66
2022-12-11T05:23:43.690Z,98236.91
2022-12-11T05:26:19.553Z,98231.53
2022-12-11T05:28:54.212Z,98236.38
2022-12-11T05:31:26.996Z,98226.38
2022-12-11T05:33:55.092Z,98227.03
2022-12-11T05:36:31.894Z,98229.22
2022-12-11T05:39:01.032Z,98226.78
2022-12-11T05:41:31.383Z,98222.59
2022-12-11T05:43:59.517Z,98215.22
2022-12-11T05:46:30.816Z,98205.31
2022-12-11T05:49:02.564Z,98206.31
2022-12-11T05:51:31.678Z,98207.69
2022-12-11T05:53:59.050Z,98201.34
2022-12-11T05:56:33.200Z,98205.38
2022-12-11T05:59:02.945Z,98189.34
2022-12-11T06:01:41.598Z,98189.50
2022-12-11T06:04:12.261Z,98190.97
2022-12-11T06:06:40.739Z,98191.84
2022-12-11T06:09:08.668Z,98192.78
2022-12-11T06:11:36.580Z,98202.47
2022-12-11T06:14:04.629Z,98203.72
2022-12-11T06:16:33.235Z,98215.53
2022-12-11T06:19:00.665Z,98212.28
2022-12-11T06:21:34.309Z,98222.16
2022-12-11T06:24:04.314Z,98210.72
2022-12-11T06:26:32.539Z,98208.97
2022-12-11T06:29:00.198Z,98203.53
2022-12-11T06:31:28.263Z,98208.59
2022-12-11T06:33:56.084Z,98201.47
2022-12-11T06:36:25.193Z,98198.09
2022-12-11T06:38:55.356Z,98182.69
2022-12-11T06:41:22.649Z,98191.72
2022-12-11T06:43:50.739Z,98197.50
2022-12-11T06:46:20.466Z,98185.06
2022-12-11T06:48:49.657Z,98187.19
2022-12-11T06:51:22.420Z,98195.88
2022-12-11T06:53:56.851Z,98192.63
2022-12-11T06:56:25.517Z,98200.81
2022-12-11T06:58:53.360Z,98190.09
2022-12-11T07:01:27.350Z,98198.06
2022-12-11T07:04:00.111Z,98206.19
2022-12-11T07:06:29.091Z,98206.75
2022-12-11T07:08:57.621Z,98206.97
2022-12-11T07:11:25.113Z,98207.16
2022-12-11T07:13:54.921Z,98216.22
2022-12-11T07:16:22.216Z,98202.13
2022-12-11T07:18:51.393Z,98207.91
2022-12-11T07:21:20.555Z,98210.38
2022-12-11T07:23:49.424Z,98215.81
2022-12-11T07:26:20.942Z,98211.84
2022-12-11T07:28:51.207Z,98206.94
2022-12-11T07:31:24.850Z,98210.75
2022-12-11T07:34:07.404Z,98210.75
2022-12-11T07:36:35.690Z,98217.13
2022-12-11T07:39:03.670Z,98226.63
2022-12-11T07:41:32.012Z,98220.72
2022-12-11T07:44:01.480Z,98226.41
2022-12-11T07:46:33.664Z,98226.41
2022-12-11T07:49:01.750Z,98226.63
2022-12-11T07:51:37.661Z,98223.03
2022-12-11T07:54:16.830Z,98223.88
2022-12-11T07:56:52.732Z,98220.50
2022-12-11T07:59:21.414Z,98228.50
2022-12-11T08:01:48.920Z,98219.25
2022-12-11T08:04:16.282Z,98220.72
2022-12-11T08:06:43.965Z,98211.00
2022-12-11T08:09:21.146Z,98206.16
2022-12-11T08:11:51.248Z,98213.47
2022-12-11T08:14:19.975Z,98217.97
2022-12-11T08:16:48.851Z,98211.22
2022-12-11T08:19:18.088Z,98210.34
2022-12-11T08:21:45.700Z,98213.03
2022-12-11T08:24:16.556Z,98219.22
2022-12-11T08:26:45.283Z,98222.38
2022-12-11T08:29:13.017Z,98220.06
2022-12-11T08:31:42.461Z,98218.34
2022-12-11T08:34:13.925Z,98221.06
2022-12-11T08:36:41.982Z,98217.22
2022-12-11T08:39:09.640Z,98221.59
2022-12-11T08:41:38.338Z,98223.34
2022-12-11T08:44:06.159Z,98228.06
2022-12-11T08:46:39.649Z,98218.81
2022-12-11T08:49:07.067Z,98220.84
2022-12-11T08:51:34.795Z,98222.25
2022-12-11T08:54:02.414Z,98223.75
2022-12-11T08:56:30.893Z,98226.06
2022-12-11T08:59:01.724Z,98222.22
2022-12-11T09:01:30.206Z,98222.28
2022-12-11T09:03:58.688Z,98213.06
2022-12-11T09:06:30.043Z,98221.00
2022-12-11T09:09:01.729Z,98217.66
2022-12-11T09:11:34.849Z,98218.28
2022-12-11T09:14:07.692Z,98221.22
2022-12-11T09:16:40.443Z,98221.03
2022-12-11T09:19:14.251Z,98225.47
2022-12-11T09:21:44.253Z,98220.31
2022-12-11T09:24:13.598Z,98223.88
2022-12-11T09:26:42.148Z,98219.47
2022-12-11T09:29:14.847Z,98219.91
2022-12-11T09:31:42.374Z,98219.69
2022-12-11T09:34:13.349Z,98220.88
2022-12-11T09:36:44.073Z,98208.53
2022-12-11T09:39:14.649Z,98209.66
2022-12-11T09:42:07.012Z,98209.28
2022-12-11T09:44:49.366Z,98212.69
2022-12-11T09:47:38.354Z,98214.84
2022-12-11T09:50:21.948Z,98205.88
2022-12-11T09:53:08.920Z,98196.78
2022-12-11T09:56:09.505Z,98204.31
2022-12-11T09:59:07.403Z,98208.38
2022-12-11T10:02:22.215Z,98207.19
2022-12-11T10:05:47.719Z,98205.47
2022-12-11T10:08:32.366Z,98215.28
2022-12-11T10:11:33.655Z,98207.50
2022-12-11T10:14:35.112Z,98193.28
2022-12-11T10:17:24.642Z,98197.94
2022-12-11T10:19:55.449Z,98193.66
2022-12-11T10:22:30.608Z,98187.63
2022-12-11T10:25:20.740Z,98185.22
2022-12-11T10:27:48.278Z,98177.44
2022-12-11T10:30:37.301Z,98173.38
2022-12-11T10:33:31.917Z,98179.78
2022-12-11T10:35:59.470Z,98167.91
2022-12-11T10:38:40.258Z,98166.19
2022-12-11T10:41:29.064Z,98166.13
2022-12-11T10:43:57.143Z,98159.88
2022-12-11T10:46:29.882Z,98165.03
2022-12-11T10:49:02.214Z,98161.19
2022-12-11T10:51:32.620Z,98156.69
2022-12-11T10:54:51.038Z,98154.88
2022-12-11T10:57:31.595Z,98155.91
2022-12-11T11:00:00.423Z,98151.19
2022-12-11T11:02:46.159Z,98144.50
2022-12-11T11:05:36.024Z,98138.00
2022-12-11T11:08:25.059Z,98131.53
2022-12-11T11:11:01.611Z,98141.22
2022-12-11T11:13:32.399Z,98128.66
2022-12-11T11:16:17.761Z,98128.66
2022-12-11T11:18:55.329Z,98128.78
2022-12-11T11:21:26.497Z,98130.94
2022-12-11T11:23:54.876Z,98132.38
2022-12-11T11:26:23.420Z,98126.25
2022-12-11T11:28:55.261Z,98126.59
2022-12-11T11:31:34.532Z,98121.09
2022-12-11T11:34:08.007Z,98125.25
2022-12-11T11:36:37.820Z,98123.78
2022-12-11T11:39:26.328Z,98120.63
2022-12-11T11:42:13.823Z,98120.44
2022-12-11T11:44:50.781Z,98116.22
2022-12-11T11:47:28.748Z,98111.38
2022-12-11T11:50:22.837Z,98112.06
2022-12-11T11:53:07.586Z,98105.66
2022-12-11T11:56:21.460Z,98101.78
2022-12-11T11:59:36.667Z,98098.84
2022-12-11T12:02:18.301Z,98109.97
2022-12-11T12:04:51.350Z,98108.06
2022-12-11T12:07:34.384Z,98110.84
2022-12-11T12:11:01.591Z,98105.63
2022-12-11T12:14:51.114Z,98097.59
2022-12-11T12:17:41.979Z,98090.75
2022-12-11T12:20:37.878Z,98098.19
2022-12-11T12:23:52.802Z,98096.84
2022-12-11T12:26:36.082Z,98106.00
2022-12-11T12:29:35.721Z,98099.03
2022-12-11T12:33:04.307Z,98097.47
2022-12-11T12:36:02.131Z,98094.00
2022-12-11T12:39:02.612Z,98094.53
2022-12-11T12:42:14.451Z,98086.41
2022-12-11T12:45:00.095Z,98085.84
2022-12-11T12:47:33.805Z,98081.16
2022-12-11T12:50:11.118Z,98065.47
2022-12-11T12:52:41.632Z,98071.34
2022-12-11T12:55:31.843Z,98069.50
2022-12-11T12:58:27.697Z,98060.44
2022-12-11T13:01:10.544Z,98063.38
2022-12-11T13:04:03.036Z,98062.13
2022-12-11T13:06:38.720Z,98073.66
2022-12-11T13:09:28.417Z,98071.47
2022-12-11T13:12:13.121Z,98074.09
2022-12-11T13:14:40.628Z,98070.78
2022-12-11T13:17:39.336Z,98070.16
2022-12-11T13:20:22.242Z,98069.59
2022-12-11T13:23:15.686Z,98076.13
2022-12-11T13:25:57.619Z,98070.53
2022-12-11T13:28:28.555Z,98079.63
2022-12-11T13:31:23.819Z,98084.72
2022-12-11T13:33:58.477Z,98084.22
2022-12-11T13:36:37.783Z,98087.25
2022-12-11T13:39:19.932Z,98084.00
2022-12-11T13:42:37.730Z,98080.28
2022-12-11T13:46:09.320Z,98083.72
2022-12-11T13:49:50.780Z,98091.53
2022-12-11T13:53:13.165Z,98087.00
2022-12-11T13:55:45.623Z,98086.13
2022-12-11T13:58:22.971Z,98089.88
2022-12-11T14:01:27.486Z,98087.91
2022-12-11T14:04:04.869Z,98084.63
2022-12-11T14:06:36.483Z,98081.84
2022-12-11T14:09:07.600Z,98080.31
2022-12-11T14:11:40.986Z,98078.34
2022-12-11T14:14:24.770Z,98084.56
2022-12-11T14:16:55.807Z,98077.91
2022-12-11T14:19:27.370Z,98080.69
2022-12-11T14:22:09.136Z,98090.31
2022-12-11T14:24:36.581Z,98082.41
2022-12-11T14:27:04.810Z,98089.25
2022-12-11T14:29:34.256Z,98094.59
2022-12-11T14:32:07.899Z,98096.50
2022-12-11T14:34:45.662Z,98097.31
2022-12-11T14:37:17.860Z,98100.25
2022-12-11T14:40:00.154Z,98094.84
2022-12-11T14:42:47.943Z,98102.66
2022-12-11T14:45:41.222Z,98100.81
2022-12-11T14:48:23.548Z,98099.75
2022-12-11T14:50:59.705Z,98109.00
2022-12-11T14:53:38.674Z,98106.69
2022-12-11T14:56:13.761Z,98109.22
2022-12-11T14:58:59.518Z,98119.13
2022-12-11T15:01:35.737Z,98124.78
2022-12-11T15:04:15.352Z,98120.97
2022-12-11T15:06:50.144Z,98118.03
2022-12-11T15:09:35.676Z,98119.72
2022-12-11T15:12:18.467Z,98117.00
2022-12-11T15:14:59.089Z,98125.03
2022-12-11T15:17:28.424Z,98118.09
2022-12-11T15:20:07.732Z,98121.44
2022-12-11T15:22:37.145Z,98120.63
2022-12-11T15:25:05.957Z,98123.34
2022-12-11T15:27:40.264Z,98127.31
2022-12-11T15:30:26.623Z,98129.44
2022-12-11T15:33:12.090Z,98130.69
2022-12-11T15:35:55.671Z,98129.38
2022-12-11T15:38:40.691Z,98125.56
2022-12-11T15:41:21.147Z,98130.84
2022-12-11T15:43:59.221Z,98126.59
2022-12-11T15:46:27.379Z,98137.88
2022-12-11T15:48:57.905Z,98144.91
2022-12-11T15:51:27.379Z,98137.81
2022-12-11T15:53:54.769Z,98137.81
2022-12-11T15:56:22.767Z,98142.06
2022-12-11T15:58:50.591Z,98140.94
2022-12-11T16:01:18.289Z,98150.00
2022-12-11T16:03:46.216Z,98144.91
2022-12-11T16:06:14.602Z,98146.81
2022-12-11T16:08:56.642Z,98145.41
2022-12-11T16:11:24.608Z,98146.22
2022-12-11T16:13:51.897Z,98156.69
2022-12-11T16:16:19.248Z,98142.22
2022-12-11T16:18:46.564Z,98148.72
2022-12-11T16:21:18.264Z,98143.91
2022-12-11T16:23:48.895Z,98152.03
2022-12-11T16:26:16.208Z,98154.88
2022-12-11T16:28:43.830Z,98145.84
2022-12-11T16:31:14.776Z,98154.69
2022-12-11T16:33:43.471Z,98145.03
2022-12-11T16:36:19.955Z,98147.13
2022-12-11T16:38:53.461Z,98148.59
2022-12-11T16:41:23.392Z,98154.28
2022-12-11T16:43:54.754Z,98147.81
2022-12-11T16:46:24.608Z,98146.09
2022-12-11T16:48:51.967Z,98149.25
2022-12-11T16:51:19.521Z,98145.88
2022-12-11T16:53:46.756Z,98150.94
2022-12-11T16:57:10.445Z,98153.03
2022-12-11T16:59:49.664Z,98146.72
2022-12-11T17:02:17.982Z,98150.97
2022-12-11T17:04:52.166Z,98153.91
2022-12-11T17:07:21.079Z,98152.22
2022-12-11T17:09:48.408Z,98148.16
2022-12-11T17:12:15.870Z,98143.06
2022-12-11T17:14:43.344Z,98135.28
2022-12-11T17:17:10.614Z,98141.41
2022-12-11T17:19:37.897Z,98135.69
2022-12-11T17:22:05.347Z,98136.88
2022-12-11T17:24:32.678Z,98138.16
2022-12-11T17:27:00.084Z,98135.13
2022-12-11T17:29:27.395Z,98126.72
2022-12-11T17:31:54.752Z,98138.25
2022-12-11T17:34:22.109Z,98135.41
2022-12-11T17:36:51.549Z,98138.16
2022-12-11T17:39:19.186Z,98129.78
2022-12-11T17:41:46.743Z,98133.16
2022-12-11T17:44:21.513Z,98131.78
2022-12-11T17:47:14.400Z,98125.94
2022-12-11T17:49:49.607Z,98136.56
2022-12-11T17:52:17.366Z,98131.09
2022-12-11T17:54:56.188Z,98128.72
2022-12-11T17:57:25.438Z,98134.38
2022-12-11T17:59:55.483Z,98137.19
2022-12-11T18:02:23.409Z,98144.69
2022-12-11T18:04:52.057Z,98154.78
2022-12-11T18:07:19.593Z,98146.38
2022-12-11T18:09:47.072Z,98139.94
2022-12-11T18:12:32.958Z,98136.53
2022-12-11T18:15:04.619Z,98140.59
2022-12-11T18:17:32.215Z,98139.63
2022-12-11T18:19:59.726Z,98137.81
2022-12-11T18:22:27.170Z,98143.94
2022-12-11T18:24:58.348Z,98140.81
2022-12-11T18:27:25.923Z,98143.38
2022-12-11T18:29:53.331Z,98145.06
2022-12-11T18:32:20.908Z,98134.94
2022-12-11T18:34:48.078Z,98129.88
2022-12-11T18:37:15.453Z,98134.94
2022-12-11T18:39:43.098Z,98131.56
2022-12-11T18:42:32.416Z,98127.78
2022-12-11T18:44:58.181Z,98135.53
2022-12-11T18:47:25.842Z,98132.19
2022-12-11T18:49:53.102Z,98137.50
2022-12-11T18:52:20.476Z,98139.16
2022-12-11T18:54:52.451Z,98132.38
2022-12-11T18:57:19.813Z,98137.69
2022-12-11T18:59:54.766Z,98141.00
2022-12-11T19:02:23.034Z,98144.97
2022-12-11T19:04:50.387Z,98142.31
2022-12-11T19:07:17.751Z,98150.59
2022-12-11T19:09:48.317Z,98145.56
2022-12-11T19:12:16.203Z,98145.88
2022-12-11T19:14:43.841Z,98153.00
2022-12-11T19:17:11.508Z,98151.53
2022-12-11T19:19:38.963Z,98146.63
2022-12-11T19:22:07.090Z,98145.00
2022-12-11T19:24:34.734Z,98141.25
2022-12-11T19:27:02.474Z,98141.81
2022-12-11T19:29:34.594Z,98139.66
2022-12-11T19:32:04.362Z,98146.41
2022-12-11T19:34:32.325Z,98134.66
2022-12-11T19:37:00.614Z,98139.34
2022-12-11T19:39:29.705Z,98138.78
2022-12-11T19:41:57.520Z,98145.28
2022-12-11T19:44:51.068Z,98146.13
2022-12-11T19:47:18.659Z,98145.28
2022-12-11T19:49:48.693Z,98141.28
2022-12-11T19:52:17.382Z,98141.88
2022-12-11T19:54:50.749Z,98139.06
2022-12-11T19:57:18.639Z,98132.59
2022-12-11T19:59:57.133Z,98135.09
2022-12-11T20:02:25.819Z,98128.25
2022-12-11T20:04:54.585Z,98135.91
2022-12-11T20:07:27.467Z,98130.75
2022-12-11T20:10:03.276Z,98130.13
2022-12-11T20:12:33.757Z,98133.19
2022-12-11T20:15:01.516Z,98131.06
2022-12-11T20:17:29.255Z,98147.22
2022-12-11T20:19:56.710Z,98158.38
2022-12-11T20:22:24.375Z,98151.84
2022-12-11T20:24:53.840Z,98146.31
2022-12-11T20:27:21.474Z,98144.03
2022-12-11T20:29:49.004Z,98146.19
2022-12-11T20:32:16.649Z,98152.78
2022-12-11T20:34:44.564Z,98152.94
2022-12-11T20:37:12.484Z,98151.13
2022-12-11T20:39:40.061Z,98147.88
2022-12-11T20:42:10.175Z,98158.44
2022-12-11T20:44:37.512Z,98156.72
2022-12-11T20:47:06.793Z,98149.53
2022-12-11T20:49:34.659Z,98149.03
2022-12-11T20:52:02.474Z,98156.94
2022-12-11T20:54:30.160Z,98149.38
2022-12-11T20:56:58.237Z,98164.63
2022-12-11T20:59:26.322Z,98156.44
2022-12-11T21:01:54.182Z,98148.63
2022-12-11T21:04:23.205Z,98149.28
2022-12-11T21:07:06.147Z,98158.94
2022-12-11T21:09:34.374Z,98153.06
2022-12-11T21:12:02.687Z,98154.34
2022-12-11T21:14:31.339Z,98149.69
2022-12-11T21:17:00.531Z,98154.75
2022-12-11T21:19:28.041Z,98156.84
2022-12-11T21:21:56.377Z,98159.16
2022-12-11T21:24:28.005Z,98155.38
2022-12-11T21:26:58.480Z,98157.28
2022-12-11T21:29:29.495Z,98157.28
2022-12-11T21:31:57.704Z,98151.38
2022-12-11T21:34:25.996Z,98153.06
2022-12-11T21:36:57.018Z,98155.38
2022-12-11T21:39:28.686Z,98160.88
2022-12-11T21:41:58.155Z,98155.59
2022-12-11T21:47:38.903Z,98164.66
2022-12-11T21:50:07.125Z,98171.41
2022-12-11T21:52:34.834Z,98172.00
2022-12-11T21:55:06.490Z,98163.59
2022-12-11T21:57:34.771Z,98172.88
2022-12-11T22:00:04.413Z,98175.81
2022-12-11T22:02:41.242Z,98180.88
2022-12-11T22:05:12.740Z,98179.41
2022-12-11T22:07:40.581Z,98184.66
2022-12-11T22:10:09.541Z,98168.88
2022-12-11T22:12:37.296Z,98180.47
2022-12-11T22:15:06.378Z,98176.03
2022-12-11T22:17:34.187Z,98171.16
2022-12-11T22:20:07.174Z,98168.66
2022-12-11T22:22:34.872Z,98180.88
2022-12-11T22:25:03.707Z,98173.31
2022-12-11T22:27:32.164Z,98172.47
2022-12-11T22:30:00.039Z,98177.94
2022-12-11T22:32:27.890Z,98169.28
2022-12-11T22:34:58.794Z,98173.28
2022-12-11T22:37:26.582Z,98171.78
2022-12-11T22:39:54.209Z,98173.28
2022-12-11T22:42:21.767Z,98175.41
2022-12-11T22:44:49.667Z,98172.63
2022-12-11T22:47:17.205Z,98181.28
2022-12-11T22:49:44.922Z,98176.22
2022-12-11T22:52:12.599Z,98181.25
2022-12-11T22:54:42.444Z,98179.13
2022-12-11T22:57:10.803Z,98180.41
2022-12-11T22:59:38.351Z,98183.81
2022-12-11T23:02:06.120Z,98181.28
2022-12-11T23:04:34.218Z,98179.59
2022-12-11T23:07:01.663Z,98186.56
2022-12-11T23:09:29.387Z,98186.34
2022-12-11T23:11:58.563Z,98185.06
2022-12-11T23:14:26.615Z,98189.31
2022-12-11T23:16:54.618Z,98185.31
2022-12-11T23:19:25.614Z,98183.41
2022-12-11T23:21:54.316Z,98187.22
2022-12-11T23:24:22.726Z,98173.72
2022-12-11T23:26:50.210Z,98181.28
2022-12-11T23:29:17.889Z,98182.97
2022-12-11T23:31:45.409Z,98179.19
2022-12-11T23:34:13.069Z,98181.28
2022-12-11T23:36:40.789Z,98180.44
2022-12-11T23:39:08.482Z,98185.69
2022-12-11T23:41:36.512Z,98186.56
2022-12-11T23:44:04.879Z,98188.03
2022-12-11T23:46:33.107Z,98189.53
2022-12-11T23:49:00.510Z,98192.25
2022-12-11T23:51:28.537Z,98186.78
2022-12-11T23:53:56.347Z,98187.19
2022-12-11T23:56:29.207Z,98188.47
2022-12-11T23:58:57.820Z,98186.97
